Time;durP1;ratioP1;P1;durP2;ratioP2;P2;SDS_P1;SDS_P2;PMS_P1;PMS_P2;Temp;Humidity;BMP_temperature;BMP_pressure;BME280_temperature;BME280_humidity;BME280_pressure;Samples;Min_cycle;Max_cycle;Signal;HPM_P1;HPM_P2
2023/06/21 00:02:07;;;;;;;2.47;2.20;;;23.30;1.00;;;;;;5073121;28;20419;-56
2023/06/21 00:04:34;;;;;;;3.10;2.17;;;23.30;1.00;;;;;;5072572;28;20716;-56
2023/06/21 00:07:01;;;;;;;3.00;2.60;;;23.20;1.00;;;;;;5073992;28;20435;-51
2023/06/21 00:09:27;;;;;;;3.40;2.00;;;23.20;1.00;;;;;;5074722;28;20424;-53
2023/06/21 00:11:54;;;;;;;2.90;2.00;;;23.30;1.00;;;;;;5074725;28;20492;-52
2023/06/21 00:14:21;;;;;;;2.60;2.17;;;23.30;1.00;;;;;;5074846;28;20481;-54
2023/06/21 00:16:49;;;;;;;3.10;1.95;;;23.40;1.00;;;;;;5074412;28;20442;-57
2023/06/21 00:19:18;;;;;;;2.65;1.90;;;23.40;1.00;;;;;;5075103;28;20490;-53
2023/06/21 00:21:45;;;;;;;5.60;2.50;;;23.30;1.00;;;;;;5074927;28;20463;-55
2023/06/21 00:24:13;;;;;;;2.38;2.17;;;23.30;1.00;;;;;;5074398;28;20485;-55
2023/06/21 00:26:40;;;;;;;2.50;1.80;;;23.30;1.00;;;;;;5074533;28;20442;-55
2023/06/21 00:29:07;;;;;;;2.63;2.10;;;23.30;1.00;;;;;;5074087;28;20462;-53
2023/06/21 00:31:34;;;;;;;3.22;2.25;;;23.30;99.90;;;;;;5073176;28;20477;-55
2023/06/21 00:34:01;;;;;;;2.42;2.00;;;23.30;99.90;;;;;;5073337;28;20435;-57
2023/06/21 00:36:29;;;;;;;4.23;2.20;;;23.30;1.00;;;;;;5073527;28;20492;-54
2023/06/21 00:38:57;;;;;;;3.00;2.40;;;23.20;1.00;;;;;;5074264;28;20428;-53
2023/06/21 00:41:24;;;;;;;3.95;2.50;;;23.10;1.00;;;;;;5073807;28;20437;-56
2023/06/21 00:43:51;;;;;;;2.65;2.10;;;23.00;1.00;;;;;;5074720;28;20510;-55
2023/06/21 00:46:18;;;;;;;3.80;2.13;;;22.90;1.00;;;;;;5074392;28;20447;-54
2023/06/21 00:48:45;;;;;;;3.20;2.40;;;22.90;1.00;;;;;;5073340;28;20434;-57
2023/06/21 00:51:13;;;;;;;2.90;2.38;;;22.80;1.00;;;;;;5073195;28;20435;-56
2023/06/21 00:53:42;;;;;;;3.10;2.57;;;22.70;1.00;;;;;;5072828;28;20431;-55
2023/06/21 00:56:10;;;;;;;4.32;2.42;;;22.70;1.00;;;;;;5072178;28;20855;-57
2023/06/21 00:58:37;;;;;;;2.78;2.13;;;22.70;1.00;;;;;;5073180;28;20423;-54
2023/06/21 01:01:04;;;;;;;2.40;2.10;;;22.70;1.00;;;;;;5073170;28;20484;-55
2023/06/21 01:03:31;;;;;;;3.05;2.58;;;22.80;1.00;;;;;;5073515;28;20643;-57
2023/06/21 01:06:12;;;;;;;2.27;1.70;;;22.80;1.00;;;;;;5073424;28;20434;-56
2023/06/21 01:08:49;;;;;;;3.33;2.10;;;22.90;1.00;;;;;;5073284;28;20747;-56
2023/06/21 01:11:25;;;;;;;2.67;2.40;;;23.00;1.00;;;;;;5073469;28;20787;-55
2023/06/21 01:14:11;;;;;;;5.10;2.47;;;23.00;1.00;;;;;;5074213;28;20484;-56
2023/06/21 01:16:40;;;;;;;3.80;1.98;;;23.00;1.00;;;;;;5072533;28;20431;-56
2023/06/21 01:19:16;;;;;;;4.90;2.20;;;23.00;1.00;;;;;;5072527;28;20501;-54
2023/06/21 01:21:44;;;;;;;2.50;2.30;;;22.90;1.00;;;;;;5072616;28;20715;-56
2023/06/21 01:24:27;;;;;;;2.00;1.80;;;22.90;1.00;;;;;;5072598;28;20431;-53
2023/06/21 01:27:04;;;;;;;3.10;2.10;;;22.80;1.00;;;;;;5072344;28;20504;-54
2023/06/21 01:29:34;;;;;;;3.28;2.50;;;22.60;1.00;;;;;;5072817;28;20855;-56
2023/06/21 01:32:02;;;;;;;2.95;2.40;;;22.40;1.00;;;;;;5073334;28;20498;-56
2023/06/21 01:34:30;;;;;;;3.40;2.90;;;22.30;1.00;;;;;;5073679;28;20488;-54
2023/06/21 01:36:58;;;;;;;3.40;2.30;;;22.20;1.00;;;;;;5072464;28;20481;-55
2023/06/21 01:39:27;;;;;;;3.20;2.30;;;22.10;1.00;;;;;;5073661;28;20525;-56
2023/06/21 01:41:54;;;;;;;3.63;2.10;;;22.20;1.00;;;;;;5074199;28;20431;-49
2023/06/21 01:44:22;;;;;;;2.13;1.83;;;22.20;1.00;;;;;;5075816;28;20430;-55
2023/06/21 01:46:54;;;;;;;2.42;2.00;;;22.10;1.00;;;;;;5076430;28;20563;-54
2023/06/21 01:49:22;;;;;;;2.15;1.70;;;22.10;1.00;;;;;;5076465;28;20431;-55
2023/06/21 01:51:51;;;;;;;3.60;2.15;;;22.10;1.00;;;;;;5076746;28;20488;-53
2023/06/21 01:54:20;;;;;;;2.50;1.80;;;22.10;1.00;;;;;;5076429;28;20666;-55
2023/06/21 01:56:50;;;;;;;5.28;2.10;;;22.10;1.00;;;;;;5076158;28;20438;-55
2023/06/21 01:59:18;;;;;;;3.63;2.20;;;22.10;1.00;;;;;;5077089;28;20480;-56
2023/06/21 02:01:50;;;;;;;2.70;2.20;;;22.00;1.00;;;;;;5077647;28;20453;-55
2023/06/21 02:04:19;;;;;;;2.47;2.10;;;22.00;1.00;;;;;;5077512;28;20564;-56
2023/06/21 02:06:48;;;;;;;2.78;2.45;;;22.00;1.00;;;;;;5077285;28;20489;-57
2023/06/21 02:09:15;;;;;;;2.20;2.00;;;22.10;1.00;;;;;;5076937;28;20431;-57
2023/06/21 02:11:43;;;;;;;2.80;2.20;;;22.00;1.00;;;;;;5077063;28;20438;-51
2023/06/21 02:14:11;;;;;;;5.15;2.40;;;22.10;1.00;;;;;;5076878;28;20496;-53
2023/06/21 02:16:38;;;;;;;3.50;2.72;;;22.10;1.00;;;;;;5077104;28;20862;-56
2023/06/21 02:19:05;;;;;;;3.38;2.30;;;22.20;1.00;;;;;;5076994;28;20481;-54
2023/06/21 02:21:33;;;;;;;2.42;2.10;;;22.20;1.00;;;;;;5077200;28;20446;-57
2023/06/21 02:24:01;;;;;;;2.60;2.40;;;22.20;1.00;;;;;;5076878;28;20434;-53
2023/06/21 02:26:28;;;;;;;4.70;2.00;;;22.20;1.00;;;;;;5076692;28;20832;-54
2023/06/21 02:28:55;;;;;;;2.50;1.85;;;22.10;1.00;;;;;;5076252;28;20488;-56
2023/06/21 02:31:22;;;;;;;2.63;1.80;;;22.10;1.00;;;;;;5076595;28;20431;-57
2023/06/21 02:33:49;;;;;;;2.47;2.00;;;22.10;1.00;;;;;;5076672;28;20484;-54
2023/06/21 02:36:16;;;;;;;4.57;2.60;;;22.20;1.00;;;;;;5076327;28;20525;-58
2023/06/21 02:38:44;;;;;;;3.40;2.30;;;22.20;1.00;;;;;;5075485;28;20426;-59
2023/06/21 02:41:11;;;;;;;3.70;2.42;;;22.20;1.00;;;;;;5075960;28;20450;-55
2023/06/21 02:43:38;;;;;;;3.15;2.30;;;22.10;1.00;;;;;;5076236;28;20423;-58
2023/06/21 02:46:05;;;;;;;2.72;2.40;;;22.00;1.00;;;;;;5076592;28;20428;-58
2023/06/21 02:48:33;;;;;;;2.38;2.17;;;22.00;1.00;;;;;;5075616;28;20437;-58
2023/06/21 02:51:00;;;;;;;2.40;2.20;;;22.00;1.00;;;;;;5074404;28;20790;-57
2023/06/21 02:53:27;;;;;;;3.40;2.60;;;22.00;1.00;;;;;;5074495;28;20465;-57
2023/06/21 02:55:56;;;;;;;2.53;2.30;;;22.00;1.00;;;;;;5074531;28;20843;-53
2023/06/21 02:58:22;;;;;;;2.50;2.30;;;22.00;1.00;;;;;;5075519;28;20424;-56
2023/06/21 03:00:50;;;;;;;2.67;2.00;;;22.00;1.00;;;;;;5076073;28;20484;-55
2023/06/21 03:03:17;;;;;;;2.80;2.50;;;22.00;1.00;;;;;;5076006;28;20431;-52
2023/06/21 03:05:43;;;;;;;4.03;2.80;;;22.10;1.00;;;;;;5075944;28;20854;-49
2023/06/21 03:08:11;;;;;;;2.50;2.30;;;22.10;1.00;;;;;;5075535;28;20863;-53
2023/06/21 03:10:39;;;;;;;2.90;2.10;;;22.10;1.00;;;;;;5075208;28;20433;-56
2023/06/21 03:13:07;;;;;;;3.60;2.20;;;22.00;1.00;;;;;;5075546;28;20484;-56
2023/06/21 03:15:34;;;;;;;3.35;2.38;;;22.00;1.00;;;;;;5075094;28;20435;-56
2023/06/21 03:18:01;;;;;;;2.72;2.47;;;22.00;1.00;;;;;;5073095;28;20493;-51
2023/06/21 03:20:28;;;;;;;2.20;1.92;;;22.10;1.00;;;;;;5075699;28;20427;-51
2023/06/21 03:22:55;;;;;;;3.33;2.33;;;22.10;1.00;;;;;;5071886;28;20423;-50
2023/06/21 03:25:22;;;;;;;3.90;2.80;;;22.10;1.00;;;;;;5073084;28;20423;-51
2023/06/21 03:27:49;;;;;;;3.67;2.60;;;22.10;1.00;;;;;;5071822;28;20494;-54
2023/06/21 03:30:18;;;;;;;4.00;2.80;;;22.10;1.00;;;;;;5071727;28;20582;-55
2023/06/21 03:32:47;;;;;;;4.57;2.88;;;22.10;1.00;;;;;;5069582;28;20447;-53
2023/06/21 03:35:14;;;;;;;3.88;2.40;;;22.10;1.00;;;;;;5070294;28;20510;-51
2023/06/21 03:37:42;;;;;;;2.30;2.10;;;22.20;1.00;;;;;;5072149;28;20422;-53
2023/06/21 03:40:13;;;;;;;3.00;2.45;;;22.30;1.00;;;;;;5072950;28;20458;-55
2023/06/21 03:42:40;;;;;;;3.55;2.28;;;22.30;1.00;;;;;;5072809;28;20504;-56
2023/06/21 03:45:08;;;;;;;2.90;2.53;;;22.40;1.00;;;;;;5073717;28;20970;-50
2023/06/21 03:47:38;;;;;;;2.70;2.40;;;22.40;1.00;;;;;;5075251;28;20488;-52
2023/06/21 03:50:06;;;;;;;2.38;2.17;;;22.30;1.00;;;;;;5075243;28;20488;-50
2023/06/21 03:52:33;;;;;;;2.92;2.25;;;22.30;1.00;;;;;;5074923;28;20473;-54
2023/06/21 03:55:00;;;;;;;2.30;1.70;;;22.40;1.00;;;;;;5075074;28;20859;-50
2023/06/21 03:57:27;;;;;;;3.47;2.15;;;22.40;1.00;;;;;;5075150;28;20466;-53
2023/06/21 03:59:54;;;;;;;3.22;1.90;;;22.10;1.00;;;;;;5074263;28;20492;-55
2023/06/21 04:02:21;;;;;;;2.20;1.80;;;22.00;1.00;;;;;;5075085;28;20913;-51
2023/06/21 04:04:50;;;;;;;2.03;1.63;;;22.00;1.00;;;;;;5074912;28;20484;-51
2023/06/21 04:07:19;;;;;;;1.92;1.40;;;22.00;1.00;;;;;;5071840;28;20493;-47
2023/06/21 04:09:46;;;;;;;1.75;1.50;;;22.00;1.00;;;;;;5073160;28;20478;-48
2023/06/21 04:12:13;;;;;;;2.65;1.60;;;22.00;1.00;;;;;;5073811;28;20439;-52
2023/06/21 04:14:40;;;;;;;2.93;2.10;;;22.00;8.90;;;;;;5071601;28;20870;-50
2023/06/21 04:17:08;;;;;;;2.80;2.47;;;21.80;22.10;;;;;;5070584;28;20534;-54
2023/06/21 04:19:35;;;;;;;3.25;2.10;;;21.70;64.70;;;;;;5070426;28;20533;-51
2023/06/21 04:22:03;;;;;;;3.10;2.00;;;21.50;61.10;;;;;;5071009;28;20427;-51
2023/06/21 04:24:30;;;;;;;2.07;1.80;;;21.50;99.90;;;;;;5072034;28;20485;-53
2023/06/21 04:26:58;;;;;;;1.90;1.70;;;21.40;75.40;;;;;;5072096;28;20945;-54
2023/06/21 04:29:26;;;;;;;2.50;1.80;;;21.30;52.00;;;;;;5072757;28;20500;-50
2023/06/21 04:31:53;;;;;;;3.30;1.80;;;21.20;76.60;;;;;;5072108;28;20525;-51
2023/06/21 04:34:20;;;;;;;2.30;1.60;;;21.30;79.30;;;;;;5073671;28;20475;-50
2023/06/21 04:36:48;;;;;;;2.38;2.10;;;21.30;75.10;;;;;;5074068;28;20442;-50
2023/06/21 04:39:17;;;;;;;2.90;1.60;;;21.30;90.50;;;;;;5073911;28;20427;-49
2023/06/21 04:41:46;;;;;;;2.83;1.92;;;21.30;88.70;;;;;;5073578;28;20879;-51
2023/06/21 04:44:15;;;;;;;3.20;2.15;;;21.30;88.70;;;;;;5073451;28;20522;-52
2023/06/21 04:46:42;;;;;;;2.85;2.22;;;21.20;99.90;;;;;;5073169;28;20551;-49
2023/06/21 04:49:09;;;;;;;3.13;2.63;;;21.30;99.90;;;;;;5073665;28;20440;-49
2023/06/21 04:51:36;;;;;;;2.97;2.25;;;21.20;99.90;;;;;;5072375;28;20854;-51
2023/06/21 04:54:03;;;;;;;3.00;2.53;;;21.10;99.90;;;;;;5071771;28;20843;-53
2023/06/21 04:56:32;;;;;;;3.20;1.70;;;21.10;99.90;;;;;;5072438;28;20580;-50
2023/06/21 04:58:59;;;;;;;3.50;2.20;;;21.20;99.90;;;;;;5072605;28;20778;-50
2023/06/21 05:01:26;;;;;;;3.40;2.33;;;21.20;99.90;;;;;;5068845;28;20473;-52
2023/06/21 05:03:53;;;;;;;3.15;2.30;;;21.20;99.90;;;;;;5070697;28;20916;-47
2023/06/21 05:06:22;;;;;;;3.75;2.30;;;21.30;99.90;;;;;;5070101;28;20468;-50
2023/06/21 05:08:49;;;;;;;5.00;2.55;;;21.20;99.90;;;;;;5071344;28;20856;-53
2023/06/21 05:11:16;;;;;;;2.38;2.08;;;21.20;99.90;;;;;;5072700;28;20431;-48
2023/06/21 05:13:44;;;;;;;4.73;2.40;;;21.20;99.90;;;;;;5072559;28;20427;-50
2023/06/21 05:16:11;;;;;;;3.20;1.90;;;21.30;99.90;;;;;;5073301;28;20428;-51
2023/06/21 05:18:38;;;;;;;2.97;2.08;;;21.40;95.00;;;;;;5075599;28;20431;-51
2023/06/21 05:21:06;;;;;;;2.53;2.00;;;21.50;84.00;;;;;;5076564;28;20458;-50
2023/06/21 05:23:34;;;;;;;2.80;1.90;;;21.50;59.20;;;;;;5076385;28;20427;-48
2023/06/21 05:26:01;;;;;;;3.30;1.95;;;21.60;74.50;;;;;;5076978;28;20427;-47
2023/06/21 05:28:28;;;;;;;3.40;1.60;;;21.60;86.80;;;;;;5075371;28;20489;-54
2023/06/21 05:30:57;;;;;;;3.58;1.52;;;21.70;59.70;;;;;;5075650;28;20488;-53
2023/06/21 05:33:24;;;;;;;2.00;1.73;;;21.70;54.20;;;;;;5075059;28;20431;-54
2023/06/21 05:35:51;;;;;;;2.20;1.80;;;21.70;82.40;;;;;;5075214;28;20431;-52
2023/06/21 05:38:18;;;;;;;2.35;1.95;;;21.60;48.30;;;;;;5074320;28;20431;-48
2023/06/21 05:40:45;;;;;;;2.45;2.10;;;21.60;52.40;;;;;;5074891;28;20443;-53
2023/06/21 05:43:12;;;;;;;3.25;1.63;;;21.60;52.40;;;;;;5074337;28;20431;-53
2023/06/21 05:45:39;;;;;;;3.00;1.60;;;21.60;27.90;;;;;;5076009;28;20427;-53
2023/06/21 05:48:07;;;;;;;2.20;1.65;;;21.70;4.00;;;;;;5073427;28;20427;-50
2023/06/21 05:50:34;;;;;;;1.83;1.40;;;21.80;18.50;;;;;;5071644;28;20512;-52
2023/06/21 05:53:01;;;;;;;2.70;1.60;;;22.00;1.00;;;;;;5072311;28;20782;-55
2023/06/21 05:55:28;;;;;;;3.10;1.50;;;22.20;1.00;;;;;;5073350;28;20995;-53
2023/06/21 05:57:55;;;;;;;2.55;2.20;;;22.30;1.00;;;;;;5074878;28;20419;-50
2023/06/21 06:00:23;;;;;;;4.10;2.03;;;22.60;1.00;;;;;;5073468;28;20423;-52
2023/06/21 06:02:50;;;;;;;3.20;2.00;;;22.70;1.00;;;;;;5075204;28;20881;-52
2023/06/21 06:05:18;;;;;;;3.38;1.63;;;22.70;1.00;;;;;;5075404;28;20512;-52
2023/06/21 06:07:45;;;;;;;2.42;1.50;;;22.60;1.00;;;;;;5075370;28;20434;-53
2023/06/21 06:10:12;;;;;;;2.88;1.90;;;22.60;1.00;;;;;;5071969;28;20445;-54
2023/06/21 06:12:39;;;;;;;3.20;2.17;;;22.60;1.00;;;;;;5088354;28;20441;-53
2023/06/21 06:15:08;;;;;;;2.30;2.05;;;22.60;1.00;;;;;;5094060;28;20730;-50
2023/06/21 06:17:35;;;;;;;3.38;2.08;;;22.50;1.00;;;;;;5085395;28;20916;-52
2023/06/21 06:20:05;;;;;;;2.30;1.60;;;22.50;1.00;;;;;;5079061;28;20433;-53
2023/06/21 06:22:35;;;;;;;2.70;1.70;;;22.40;1.00;;;;;;5095783;28;20430;-52
2023/06/21 06:25:02;;;;;;;2.35;1.70;;;22.40;1.00;;;;;;5080674;28;20440;-54
2023/06/21 06:27:29;;;;;;;3.00;1.50;;;22.50;1.00;;;;;;5072528;28;20438;-53
2023/06/21 06:29:56;;;;;;;2.20;1.52;;;22.60;1.00;;;;;;5087544;28;20429;-55
2023/06/21 06:32:23;;;;;;;2.50;1.92;;;22.90;1.00;;;;;;5084195;28;20510;-55
2023/06/21 06:34:50;;;;;;;3.10;1.80;;;23.10;1.00;;;;;;5091010;28;20499;-54
2023/06/21 06:37:17;;;;;;;2.40;1.75;;;23.10;1.00;;;;;;5075602;28;20487;-55
2023/06/21 06:39:46;;;;;;;2.65;1.80;;;22.90;1.00;;;;;;5091573;28;20430;-56
2023/06/21 06:42:13;;;;;;;2.90;1.60;;;22.70;1.00;;;;;;5082814;28;20448;-54
2023/06/21 06:44:40;;;;;;;2.50;2.10;;;22.60;1.00;;;;;;5087290;28;20441;-53
2023/06/21 06:47:07;;;;;;;3.30;1.87;;;22.50;1.00;;;;;;5084970;28;20450;-51
2023/06/21 06:49:34;;;;;;;2.60;1.80;;;22.50;1.00;;;;;;5092665;28;20860;-52
2023/06/21 06:52:01;;;;;;;2.70;2.50;;;22.70;1.00;;;;;;5069440;28;20433;-52
2023/06/21 06:54:28;;;;;;;3.20;2.10;;;22.70;1.00;;;;;;5052866;28;20490;-56
2023/06/21 06:56:57;;;;;;;3.72;2.33;;;22.70;1.00;;;;;;5049727;28;20463;-54
2023/06/21 06:59:24;;;;;;;3.38;2.00;;;22.90;1.00;;;;;;5052185;28;20429;-55
2023/06/21 07:01:51;;;;;;;2.65;1.83;;;23.10;1.00;;;;;;5066187;28;20445;-54
2023/06/21 07:04:18;;;;;;;3.67;1.80;;;23.20;1.00;;;;;;5093217;28;20438;-55
2023/06/21 07:06:45;;;;;;;2.63;2.00;;;23.30;1.00;;;;;;5094260;28;20465;-54
2023/06/21 07:09:12;;;;;;;4.45;2.00;;;23.40;1.00;;;;;;5092797;28;20448;-55
2023/06/21 07:11:39;;;;;;;3.67;1.92;;;23.50;1.00;;;;;;5090116;28;20490;-55
2023/06/21 07:14:07;;;;;;;3.93;2.20;;;23.60;1.00;;;;;;5058555;28;20443;-55
2023/06/21 07:16:36;;;;;;;4.73;2.00;;;23.60;1.00;;;;;;5078274;28;20440;-54
2023/06/21 07:19:03;;;;;;;3.90;2.20;;;23.70;1.00;;;;;;5091943;28;20428;-53
2023/06/21 07:21:30;;;;;;;3.70;2.30;;;23.80;1.00;;;;;;5091421;28;20437;-54
2023/06/21 07:23:58;;;;;;;3.80;2.40;;;24.00;1.00;;;;;;5092271;28;20437;-55
2023/06/21 07:26:24;;;;;;;3.25;2.10;;;24.10;1.00;;;;;;5092649;28;20568;-57
2023/06/21 07:28:52;;;;;;;3.10;2.15;;;24.20;1.00;;;;;;5091015;28;20628;-54
2023/06/21 07:31:20;;;;;;;2.70;2.03;;;24.40;99.90;;;;;;5090785;28;20433;-56
2023/06/21 07:33:50;;;;;;;3.50;1.95;;;24.50;99.90;;;;;;5093452;28;20483;-56
2023/06/21 07:36:17;;;;;;;2.40;1.52;;;24.60;99.90;;;;;;5088389;28;20476;-55
2023/06/21 07:38:46;;;;;;;3.00;1.50;;;24.60;99.90;;;;;;5086514;28;20430;-53
2023/06/21 07:41:14;;;;;;;2.72;1.60;;;24.60;99.90;;;;;;5088697;28;20437;-54
2023/06/21 07:43:41;;;;;;;1.75;1.20;;;24.60;5.20;;;;;;5091413;28;20521;-55
2023/06/21 07:46:08;;;;;;;2.10;1.20;;;24.60;1.00;;;;;;5089231;28;20641;-53
2023/06/21 07:48:38;;;;;;;3.20;1.20;;;24.60;99.90;;;;;;5078044;28;20441;-54
2023/06/21 07:51:05;;;;;;;2.03;1.20;;;24.70;1.00;;;;;;5052147;28;20749;-55
2023/06/21 07:53:33;;;;;;;1.80;1.00;;;24.70;99.90;;;;;;5055461;28;20489;-56
2023/06/21 07:56:00;;;;;;;1.50;1.00;;;24.70;90.50;;;;;;5076844;28;20459;-56
2023/06/21 07:58:27;;;;;;;1.50;1.10;;;24.70;99.90;;;;;;5075883;28;20434;-56
2023/06/21 08:00:54;;;;;;;2.25;1.13;;;24.50;1.00;;;;;;5089530;28;20813;-56
2023/06/21 08:03:21;;;;;;;2.50;1.20;;;24.60;1.00;;;;;;5089354;28;20458;-53
2023/06/21 08:05:50;;;;;;;1.33;1.10;;;24.90;1.00;;;;;;5091737;28;20429;-55
2023/06/21 08:08:17;;;;;;;1.60;1.00;;;25.10;99.90;;;;;;5088751;28;20438;-56
2023/06/21 08:10:44;;;;;;;1.52;1.00;;;25.40;1.00;;;;;;5091857;28;20863;-56
2023/06/21 08:13:11;;;;;;;2.22;0.90;;;25.40;99.90;;;;;;5090678;28;20445;-56
2023/06/21 08:15:38;;;;;;;2.10;1.10;;;25.40;1.00;;;;;;5091783;28;20877;-54
2023/06/21 08:18:07;;;;;;;1.38;0.90;;;25.10;99.90;;;;;;5090290;28;20425;-57
2023/06/21 08:20:34;;;;;;;1.52;1.10;;;25.10;1.00;;;;;;5079385;28;20435;-58
2023/06/21 08:23:03;;;;;;;2.20;1.00;;;25.00;1.00;;;;;;5087541;28;20445;-58
2023/06/21 08:25:30;;;;;;;1.47;1.00;;;25.00;1.00;;;;;;5090790;28;21025;-57
2023/06/21 08:27:57;;;;;;;2.20;1.00;;;24.80;1.00;;;;;;5087173;28;20430;-58
2023/06/21 08:30:24;;;;;;;2.30;1.10;;;24.70;1.00;;;;;;5049551;28;20768;-58
2023/06/21 08:32:51;;;;;;;1.60;1.00;;;24.60;99.90;;;;;;5061049;28;20490;-58
2023/06/21 08:35:19;;;;;;;2.30;1.10;;;24.60;99.90;;;;;;5091994;28;20458;-59
2023/06/21 08:37:56;;;;;;;1.70;1.10;;;24.50;99.90;;;;;;5090565;28;20719;-59
2023/06/21 08:40:27;;;;;;;1.20;1.00;;;24.30;1.00;;;;;;5087722;28;20662;-59
2023/06/21 08:42:54;;;;;;;1.50;1.00;;;24.30;1.00;;;;;;5089719;28;20414;-59
2023/06/21 08:45:22;;;;;;;1.80;1.08;;;24.30;1.00;;;;;;5090670;28;20442;-59
2023/06/21 08:47:51;;;;;;;1.60;1.20;;;24.30;60.40;;;;;;5092797;28;20421;-59
2023/06/21 08:50:19;;;;;;;2.80;1.27;;;24.40;45.30;;;;;;5090384;28;21007;-59
2023/06/21 08:52:48;;;;;;;8.07;2.33;;;24.50;99.90;;;;;;5092048;28;20418;-59
2023/06/21 08:55:16;;;;;;;1.90;1.20;;;24.50;99.90;;;;;;5089313;28;20441;-59
2023/06/21 08:57:50;;;;;;;2.53;1.00;;;24.50;99.90;;;;;;5092301;28;20531;-59
2023/06/21 09:00:21;;;;;;;2.40;1.10;;;24.50;99.90;;;;;;5090187;28;20795;-57
2023/06/21 09:02:56;;;;;;;1.30;1.10;;;24.50;99.90;;;;;;5088882;28;20417;-58
2023/06/21 09:05:28;;;;;;;1.50;1.20;;;24.30;1.00;;;;;;5089392;28;20425;-55
2023/06/21 09:07:56;;;;;;;2.03;1.00;;;24.30;1.00;;;;;;5071100;28;20536;-56
2023/06/21 09:10:24;;;;;;;2.30;1.10;;;24.20;1.00;;;;;;5091043;28;20434;-55
2023/06/21 09:12:54;;;;;;;2.00;1.00;;;24.00;1.00;;;;;;5089474;28;20794;-54
2023/06/21 09:15:22;;;;;;;2.35;1.13;;;23.80;1.00;;;;;;5089939;28;20554;-57
2023/06/21 09:17:51;;;;;;;1.70;1.00;;;23.70;1.00;;;;;;5057687;28;20445;-57
2023/06/21 09:20:18;;;;;;;2.22;1.10;;;23.60;1.00;;;;;;5051107;28;20788;-55
2023/06/21 09:22:46;;;;;;;1.90;1.00;;;23.40;1.00;;;;;;5082976;28;20559;-54
2023/06/21 09:25:13;;;;;;;2.53;1.20;;;23.30;1.00;;;;;;5071638;28;20458;-54
2023/06/21 09:27:41;;;;;;;1.52;1.20;;;23.20;11.50;;;;;;5071343;28;20423;-54
2023/06/21 09:30:10;;;;;;;3.13;1.15;;;23.20;38.80;;;;;;5084393;28;20487;-56
2023/06/21 09:32:37;;;;;;;2.55;1.20;;;23.20;38.20;;;;;;5075203;28;20781;-55
2023/06/21 09:35:06;;;;;;;1.95;1.10;;;23.20;28.90;;;;;;5069104;28;20583;-56
2023/06/21 09:37:34;;;;;;;2.90;1.40;;;23.00;59.00;;;;;;5070692;28;20423;-52
2023/06/21 09:40:03;;;;;;;2.33;1.40;;;22.80;99.90;;;;;;5070503;28;20435;-53
2023/06/21 09:42:30;;;;;;;3.70;1.73;;;22.40;99.90;;;;;;5061533;28;20442;-53
2023/06/21 09:44:57;;;;;;;2.47;1.50;;;22.20;99.90;;;;;;5078013;28;21005;-53
2023/06/21 09:47:30;;;;;;;2.15;1.77;;;22.10;99.90;;;;;;5065603;28;20492;-53
2023/06/21 09:49:57;;;;;;;2.33;1.75;;;22.10;99.90;;;;;;5051234;28;20440;-53
2023/06/21 09:52:25;;;;;;;4.82;2.30;;;22.10;99.90;;;;;;5064303;28;20442;-54
2023/06/21 09:54:53;;;;;;;4.78;2.60;;;22.10;99.90;;;;;;5086863;28;20444;-53
2023/06/21 09:57:27;;;;;;;4.70;2.00;;;22.10;99.90;;;;;;5090889;28;20441;-49
2023/06/21 09:59:55;;;;;;;3.37;1.83;;;22.00;99.90;;;;;;5092183;28;20850;-54
2023/06/21 10:02:25;;;;;;;6.17;2.43;;;21.90;99.90;;;;;;5090743;28;20434;-53
2023/06/21 10:04:54;;;;;;;4.47;2.72;;;21.70;99.90;;;;;;5087481;28;20437;-55
2023/06/21 10:07:21;;;;;;;3.63;2.00;;;21.60;99.90;;;;;;5093054;28;20852;-54
2023/06/21 10:09:49;;;;;;;5.22;2.47;;;21.50;99.90;;;;;;5094353;28;20436;-54
2023/06/21 10:12:18;;;;;;;5.20;2.50;;;21.50;99.90;;;;;;5093941;28;20493;-54
2023/06/21 10:14:45;;;;;;;4.00;2.10;;;21.40;99.90;;;;;;5086598;28;20845;-53
2023/06/21 10:17:13;;;;;;;3.40;2.30;;;21.30;99.90;;;;;;5077644;28;20447;-55
2023/06/21 10:19:44;;;;;;;3.60;2.60;;;21.30;99.90;;;;;;5063709;28;20424;-54
2023/06/21 10:22:18;;;;;;;4.20;2.40;;;21.30;99.90;;;;;;5074873;28;20454;-53
2023/06/21 10:24:49;;;;;;;3.80;2.97;;;21.30;99.90;;;;;;5074863;28;20735;-50
2023/06/21 10:27:17;;;;;;;3.60;2.40;;;21.30;99.90;;;;;;5074981;28;20849;-53
2023/06/21 10:29:45;;;;;;;4.75;2.65;;;21.40;99.90;;;;;;5069247;28;20621;-54
2023/06/21 10:32:12;;;;;;;5.82;3.28;;;21.50;99.90;;;;;;5071549;28;20435;-51
2023/06/21 10:34:56;;;;;;;5.15;4.00;;;21.50;99.90;;;;;;5073906;28;20839;-49
2023/06/21 10:37:30;;;;;;;6.47;3.78;;;21.60;99.90;;;;;;5060185;28;20860;-51
2023/06/21 10:40:05;;;;;;;5.78;3.65;;;21.70;99.90;;;;;;5074760;28;20815;-54
2023/06/21 10:42:33;;;;;;;5.50;3.40;;;21.80;99.90;;;;;;5068541;28;20967;-53
2023/06/21 10:45:02;;;;;;;4.45;2.30;;;22.00;99.90;;;;;;5094289;28;20422;-50
2023/06/21 10:47:33;;;;;;;4.45;2.22;;;22.10;99.90;;;;;;5074231;28;20763;-55
2023/06/21 10:50:05;;;;;;;3.83;2.28;;;22.30;99.90;;;;;;5072180;28;20434;-53
2023/06/21 10:52:34;;;;;;;3.90;2.50;;;22.30;99.90;;;;;;5065378;28;20796;-52
2023/06/21 10:55:13;;;;;;;4.97;2.70;;;22.50;99.90;;;;;;5071080;28;20838;-54
2023/06/21 10:57:42;;;;;;;4.50;3.10;;;22.60;99.90;;;;;;5072478;28;20553;-51
2023/06/21 11:00:18;;;;;;;4.10;3.33;;;22.70;99.90;;;;;;5061687;28;20430;-54
2023/06/21 11:02:46;;;;;;;5.10;3.37;;;22.80;99.90;;;;;;5070263;28;20465;-54
2023/06/21 11:05:16;;;;;;;5.43;3.50;;;22.80;99.90;;;;;;5075890;28;20444;-51
2023/06/21 11:07:50;;;;;;;3.20;2.40;;;22.90;99.90;;;;;;5087084;28;20439;-50
2023/06/21 11:10:21;;;;;;;4.82;2.70;;;23.10;99.90;;;;;;5130244;27;20555;-51
2023/06/21 11:12:49;;;;;;;3.58;2.20;;;23.10;99.90;;;;;;5133778;27;20423;-51
2023/06/21 11:15:28;;;;;;;5.00;2.80;;;23.20;99.90;;;;;;5131449;27;20676;-52
2023/06/21 11:18:00;;;;;;;2.63;2.17;;;23.20;99.90;;;;;;5134938;27;20760;-52
2023/06/21 11:20:32;;;;;;;4.30;2.90;;;23.30;99.90;;;;;;5119048;27;20435;-51
2023/06/21 11:23:00;;;;;;;4.00;2.60;;;23.40;99.90;;;;;;5114095;28;20835;-50
2023/06/21 11:25:28;;;;;;;4.55;2.20;;;23.70;99.90;;;;;;5118210;27;20430;-50
2023/06/21 11:28:31;;;;;;;3.63;1.70;;;23.80;99.90;;;;;;5135831;27;20414;-53
2023/06/21 11:31:14;;;;;;;2.47;1.60;;;24.10;99.90;;;;;;5112974;28;20432;-52
2023/06/21 11:33:49;;;;;;;2.20;1.87;;;24.50;97.90;;;;;;5114054;28;20428;-50
2023/06/21 11:36:21;;;;;;;3.20;1.80;;;24.80;94.60;;;;;;5113840;28;20436;-48
2023/06/21 11:38:53;;;;;;;2.80;1.73;;;25.30;90.20;;;;;;5119716;27;20444;-54
2023/06/21 11:41:55;;;;;;;3.80;2.10;;;25.90;1.00;;;;;;5130100;27;20422;-54
2023/06/21 11:44:24;;;;;;;3.30;2.30;;;26.00;1.00;;;;;;5132407;27;20741;-54
2023/06/21 11:46:57;;;;;;;2.90;2.28;;;26.10;23.00;;;;;;5132563;27;20426;-56
2023/06/21 11:49:32;;;;;;;2.67;1.83;;;26.00;1.00;;;;;;5128648;27;20524;-54
2023/06/21 11:52:05;;;;;;;4.57;2.30;;;26.10;1.00;;;;;;5120998;27;20805;-58
2023/06/21 11:54:33;;;;;;;3.42;1.90;;;26.40;1.00;;;;;;5133621;27;20503;-57
2023/06/21 11:57:00;;;;;;;2.83;2.10;;;26.60;1.00;;;;;;5133104;27;20422;-55
2023/06/21 11:59:27;;;;;;;2.58;2.00;;;27.00;99.90;;;;;;5132209;27;20867;-50
2023/06/21 12:01:55;;;;;;;3.22;2.20;;;26.90;61.60;;;;;;5134584;27;20414;-55
2023/06/21 12:04:26;;;;;;;3.97;1.90;;;26.90;99.90;;;;;;5132367;27;20434;-54
2023/06/21 12:06:55;;;;;;;3.63;2.22;;;26.50;91.20;;;;;;5120207;27;20807;-50
2023/06/21 12:09:24;;;;;;;2.88;2.00;;;25.90;99.90;;;;;;5129574;27;20734;-55
2023/06/21 12:11:51;;;;;;;3.72;2.22;;;25.90;99.90;;;;;;5127813;27;20434;-55
2023/06/21 12:14:20;;;;;;;2.30;1.77;;;25.90;99.90;;;;;;5131211;27;20435;-56
2023/06/21 12:16:50;;;;;;;3.75;1.73;;;26.00;1.00;;;;;;5131507;27;20419;-56
2023/06/21 12:19:21;;;;;;;4.10;2.00;;;26.00;1.00;;;;;;5129129;27;20433;-56
2023/06/21 12:21:48;;;;;;;2.80;2.13;;;26.10;1.00;;;;;;5130489;27;20433;-55
2023/06/21 12:24:15;;;;;;;3.42;2.08;;;26.60;1.90;;;;;;5130883;27;20433;-55
2023/06/21 12:26:51;;;;;;;2.40;1.80;;;27.00;30.90;;;;;;5129315;27;20865;-55
2023/06/21 12:29:18;;;;;;;2.00;1.42;;;27.30;35.60;;;;;;5130086;27;20430;-55
2023/06/21 12:31:46;;;;;;;2.90;1.92;;;27.60;99.90;;;;;;5132234;27;20965;-56
2023/06/21 12:34:15;;;;;;;1.60;1.50;;;27.90;99.90;;;;;;5131470;27;20422;-55
2023/06/21 12:36:45;;;;;;;2.15;1.75;;;27.80;99.90;;;;;;5131349;27;20914;-56
2023/06/21 12:39:12;;;;;;;2.80;1.50;;;27.20;1.00;;;;;;5130933;27;20451;-55
2023/06/21 12:41:41;;;;;;;2.67;1.30;;;27.00;1.00;;;;;;5131826;27;20426;-54
2023/06/21 12:44:19;;;;;;;2.38;1.30;;;26.90;99.90;;;;;;5122300;27;20429;-55
2023/06/21 12:46:46;;;;;;;2.35;1.30;;;27.20;1.00;;;;;;5131895;27;20422;-53
2023/06/21 12:49:14;;;;;;;2.40;1.20;;;27.90;99.90;;;;;;5131124;27;20480;-56
2023/06/21 12:51:45;;;;;;;2.07;1.23;;;28.20;99.90;;;;;;5131524;28;20473;-55
2023/06/21 12:54:13;;;;;;;2.35;1.40;;;28.40;22.20;;;;;;5132123;28;20517;-53
2023/06/21 12:56:42;;;;;;;1.83;1.40;;;28.30;1.00;;;;;;5133947;28;20826;-56
2023/06/21 12:59:11;;;;;;;1.40;1.20;;;27.70;1.00;;;;;;5133937;28;20406;-56
2023/06/21 13:01:39;;;;;;;3.20;1.30;;;27.90;99.90;;;;;;5131756;28;20722;-57